createdAt,value
2019-04-26T00:02:07.397Z,10
2019-04-26T00:07:09.517Z,7
2019-04-26T00:12:12.165Z,6
2019-04-26T00:17:13.806Z,9
2019-04-26T00:22:17.128Z,9
2019-04-26T00:27:19.049Z,8
2019-04-26T00:32:21.441Z,7
2019-04-26T00:37:23.587Z,9
2019-04-26T00:42:26.039Z,10
2019-04-26T00:47:28.450Z,7
2019-04-26T00:52:31.416Z,7
2019-04-26T00:57:33.398Z,8
2019-04-26T01:02:35.854Z,12
2019-04-26T01:07:38.251Z,10
2019-04-26T01:12:40.735Z,10
2019-04-26T01:17:43.099Z,11
2019-04-26T01:22:45.930Z,8
2019-04-26T01:27:48.033Z,8
2019-04-26T01:32:50.526Z,8
2019-04-26T01:37:52.872Z,9
2019-04-26T01:42:55.334Z,7
2019-04-26T01:47:57.800Z,6
2019-04-26T01:53:00.525Z,9
2019-04-26T01:58:02.744Z,8
2019-04-26T02:03:05.076Z,6
2019-04-26T02:08:07.507Z,7
2019-04-26T02:13:09.991Z,9
2019-04-26T02:18:12.656Z,8
2019-04-26T02:23:15.161Z,10
2019-04-26T02:28:17.322Z,5
2019-04-26T02:33:19.745Z,8
2019-04-26T02:38:22.172Z,10
2019-04-26T02:43:26.379Z,7
2019-04-26T02:48:28.471Z,11
2019-04-26T02:53:31.480Z,10
2019-04-26T02:58:33.340Z,7
2019-04-26T03:03:35.674Z,7
2019-04-26T03:08:37.683Z,7
2019-04-26T03:13:40.207Z,10
2019-04-26T03:18:42.961Z,12
2019-04-26T03:23:56.934Z,9
2019-04-26T03:28:46.569Z,9
2019-04-26T03:38:51.521Z,11
2019-04-26T03:43:53.951Z,12
2019-04-26T03:48:56.374Z,10
2019-04-26T03:53:58.790Z,11
2019-04-26T03:59:01.201Z,8
2019-04-26T04:04:03.679Z,11
2019-04-26T04:09:06.080Z,10
2019-04-26T04:14:08.619Z,11
2019-04-26T04:19:11.185Z,18
2019-04-26T04:24:13.398Z,7
2019-04-26T04:29:15.881Z,8
2019-04-26T04:34:18.614Z,8
2019-04-26T04:39:20.870Z,10
2019-04-26T04:44:23.175Z,11
2019-04-26T04:49:25.633Z,12
2019-04-26T04:54:28.051Z,10
2019-04-26T05:04:32.988Z,11
2019-04-26T05:09:35.409Z,12
2019-04-26T05:14:37.896Z,12
2019-04-26T05:19:40.349Z,14
2019-04-26T05:24:42.686Z,13
2019-04-26T05:29:46.438Z,10
2019-04-26T05:34:48.938Z,9
2019-04-26T05:39:51.132Z,11
2019-04-26T05:44:52.467Z,15
2019-04-26T05:49:55.845Z,9
2019-04-26T05:54:58.187Z,12
2019-04-26T06:00:01.023Z,15
2019-04-26T06:05:02.312Z,16
2019-04-26T06:10:04.692Z,21
2019-04-26T06:15:07.165Z,19
2019-04-26T06:20:21.861Z,14
2019-04-26T06:25:12.045Z,12
2019-04-26T06:30:14.465Z,9
2019-04-26T06:35:19.807Z,10
2019-04-26T06:40:19.299Z,8
2019-04-26T06:45:21.755Z,8
2019-04-26T06:50:24.219Z,7
2019-04-26T07:00:29.316Z,8
2019-04-26T07:05:31.516Z,7
2019-04-26T07:10:34.017Z,5
2019-04-26T07:15:36.457Z,6
2019-04-26T07:20:38.824Z,7
2019-04-26T07:25:41.468Z,7
2019-04-26T07:35:46.692Z,6
2019-04-26T07:40:48.727Z,5
2019-04-26T07:45:51.101Z,5
2019-04-26T07:50:53.585Z,7
2019-04-26T08:00:58.516Z,7
2019-04-26T08:06:00.789Z,10
2019-04-26T08:11:04.338Z,13
2019-04-26T08:16:06.675Z,8
2019-04-26T08:21:12.658Z,8
2019-04-26T08:26:11.203Z,8
2019-04-26T08:36:15.580Z,8
2019-04-26T08:41:17.873Z,7
2019-04-26T08:46:20.343Z,4
2019-04-26T08:51:22.928Z,6
2019-04-26T08:56:30.058Z,9
2019-04-26T09:01:27.704Z,6
2019-04-26T09:06:30.146Z,5
2019-04-26T09:11:33.891Z,4
2019-04-26T09:16:35.006Z,8
2019-04-26T09:21:37.568Z,6
2019-04-26T09:26:42.312Z,6
2019-04-26T09:31:42.278Z,7
2019-04-26T09:36:44.729Z,6
2019-04-26T09:41:47.463Z,7
2019-04-26T09:46:52.644Z,6
2019-04-26T09:51:52.387Z,6
2019-04-26T09:56:54.703Z,4
2019-04-26T10:01:59.341Z,6
2019-04-26T10:06:59.571Z,8
2019-04-26T10:12:01.815Z,7
2019-04-26T10:17:04.240Z,7
2019-04-26T10:27:09.459Z,6
2019-04-26T10:32:11.569Z,7
2019-04-26T10:37:14.076Z,5
2019-04-26T10:47:18.978Z,6
2019-04-26T10:52:21.544Z,6
2019-04-26T10:57:24.369Z,13
2019-04-26T11:02:26.661Z,11
2019-04-26T11:07:28.711Z,10
2019-04-26T11:12:31.116Z,7
2019-04-26T11:17:33.651Z,6
2019-04-26T11:22:37.502Z,8
2019-04-26T11:27:40.045Z,11
2019-04-26T11:32:40.940Z,11
2019-04-26T11:37:46.158Z,8
2019-04-26T11:42:47.052Z,7
2019-04-26T11:47:55.715Z,7
2019-04-26T11:52:50.699Z,6
2019-04-26T11:57:53.135Z,6
2019-04-26T12:02:55.597Z,8
2019-04-26T12:07:58.222Z,8
2019-04-26T12:13:05.727Z,5
2019-04-26T12:18:05.467Z,8
2019-04-26T12:23:05.450Z,8
2019-04-26T12:28:07.808Z,6
2019-04-26T12:33:10.162Z,7
2019-04-26T12:38:12.720Z,8
2019-04-26T12:43:15.678Z,10
2019-04-26T12:48:17.683Z,10
2019-04-26T12:53:20.016Z,10
2019-04-26T12:58:22.619Z,12
2019-04-26T13:03:28.941Z,10
2019-04-26T13:08:27.332Z,8
2019-04-26T13:13:29.771Z,6
2019-04-26T13:18:32.347Z,6
2019-04-26T13:23:34.643Z,9
2019-04-26T13:28:37.235Z,6
2019-04-26T13:33:39.777Z,6
2019-04-26T13:38:43.320Z,6
2019-04-26T13:43:45.127Z,6
2019-04-26T13:48:46.828Z,11
2019-04-26T13:53:49.419Z,7
2019-04-26T13:58:54.205Z,6
2019-04-26T14:03:54.140Z,7
2019-04-26T14:08:57.830Z,7
2019-04-26T14:13:59.930Z,5
2019-04-26T14:19:01.726Z,5
2019-04-26T14:24:03.961Z,5
2019-04-26T14:29:06.401Z,6
2019-04-26T14:34:11.806Z,6
2019-04-26T14:39:14.434Z,8
2019-04-26T14:44:15.530Z,6
2019-04-26T14:49:19.118Z,8
2019-04-26T14:54:18.548Z,7
2019-04-26T14:59:22.080Z,11
2019-04-26T15:04:28.050Z,9
2019-04-26T15:09:32.640Z,6
2019-04-26T15:14:28.773Z,7
2019-04-26T15:19:33.264Z,8
2019-04-26T15:24:34.900Z,8
2019-04-26T15:29:35.670Z,11
2019-04-26T15:34:38.077Z,13
2019-04-26T15:39:40.554Z,15
2019-04-26T15:44:43.308Z,16
2019-04-26T15:49:45.580Z,22
2019-04-26T15:54:47.906Z,22
2019-04-26T15:59:50.476Z,25
2019-04-26T16:04:54.335Z,25
2019-04-26T16:09:57.254Z,27
2019-04-26T16:14:57.951Z,25
2019-04-26T16:20:01.728Z,26
2019-04-26T16:25:05.161Z,27
2019-04-26T16:30:07.261Z,26
2019-04-26T16:35:07.547Z,26
2019-04-26T16:40:12.254Z,24
2019-04-26T16:45:12.675Z,24
2019-04-26T16:50:22.107Z,23
2019-04-26T16:55:20.786Z,22
2019-04-26T17:00:19.685Z,23
2019-04-26T17:05:35.499Z,23
2019-04-26T17:10:24.747Z,23
2019-04-26T17:15:27.316Z,23
2019-04-26T17:20:29.370Z,23
2019-04-26T17:25:32.152Z,28
2019-04-26T17:30:40.736Z,24
2019-04-26T17:35:40.893Z,26
2019-04-26T17:40:39.141Z,29
2019-04-26T17:45:44.073Z,28
2019-04-26T17:50:44.084Z,35
2019-04-26T17:55:50.779Z,43
2019-04-26T18:00:48.882Z,31
2019-04-26T18:05:56.923Z,34
2019-04-26T18:10:53.726Z,34
2019-04-26T18:15:56.512Z,33
2019-04-26T18:20:58.603Z,30
2019-04-26T18:26:03.113Z,35
2019-04-26T18:31:03.895Z,26
2019-04-26T18:36:05.965Z,18
2019-04-26T18:41:08.359Z,17
2019-04-26T18:46:10.822Z,17
2019-04-26T18:51:13.272Z,13
2019-04-26T18:56:15.815Z,11
2019-04-26T19:01:18.125Z,8
2019-04-26T19:06:29.541Z,8
2019-04-26T19:11:23.109Z,7
2019-04-26T19:16:25.828Z,7
2019-04-26T19:21:28.006Z,11
2019-04-26T19:26:34.475Z,10
2019-04-26T19:31:32.761Z,3
2019-04-26T19:41:38.210Z,3
2019-04-26T19:46:42.446Z,3
2019-04-26T19:51:43.605Z,2
2019-04-26T19:56:45.435Z,3
2019-04-26T20:01:47.476Z,4
2019-04-26T20:06:52.299Z,4
2019-04-26T20:11:57.837Z,4
2019-04-26T20:16:54.744Z,3
2019-04-26T20:21:57.300Z,4
2019-04-26T20:27:01.410Z,3
2019-04-26T20:32:02.214Z,2
2019-04-26T20:37:04.530Z,2
2019-04-26T20:42:07.002Z,1
2019-04-26T20:47:12.498Z,1
2019-04-26T20:52:11.827Z,2
2019-04-26T20:57:14.313Z,2
2019-04-26T21:02:20.657Z,2
2019-04-26T21:07:19.141Z,2
2019-04-26T21:12:21.623Z,2
2019-04-26T21:17:27.629Z,1
2019-04-26T21:22:28.661Z,1
2019-04-26T21:27:29.721Z,1
2019-04-26T21:32:33.168Z,1
2019-04-26T21:37:34.138Z,2
2019-04-26T21:42:36.265Z,3
2019-04-26T21:47:38.773Z,3
2019-04-26T21:52:41.091Z,3
2019-04-26T21:57:43.935Z,4
2019-04-26T22:02:46.075Z,4
2019-04-26T22:07:48.565Z,4
2019-04-26T22:12:50.847Z,4
2019-04-26T22:17:54.552Z,5
2019-04-26T22:22:55.722Z,5
2019-04-26T22:28:00.322Z,5
2019-04-26T22:33:00.630Z,6
2019-04-26T22:38:03.980Z,5
2019-04-26T22:43:05.909Z,5
2019-04-26T22:48:11.471Z,4
2019-04-26T22:53:11.908Z,6
2019-04-26T22:58:13.398Z,4
2019-04-26T23:03:15.439Z,4
2019-04-26T23:08:17.721Z,4
2019-04-26T23:13:20.206Z,5
2019-04-26T23:18:24.117Z,5
2019-04-26T23:23:25.075Z,5
2019-04-26T23:28:31.560Z,7
2019-04-26T23:33:29.908Z,6
2019-04-26T23:43:34.772Z,6
2019-04-26T23:48:37.215Z,6
2019-04-26T23:53:39.654Z,6
2019-04-26T23:58:44.029Z,7
